sensor_id;sensor_type;location;lat;lon;timestamp;temperature;humidity
63313;DHT22;49442;45.640;13.812;2022-10-31T00:01:11;15.80;99.90
63313;DHT22;49442;45.640;13.812;2022-10-31T00:03:37;15.80;99.90
63313;DHT22;49442;45.640;13.812;2022-10-31T00:06:02;15.80;99.90
63313;DHT22;49442;45.640;13.812;2022-10-31T00:08:28;15.80;99.90
63313;DHT22;49442;45.640;13.812;2022-10-31T00:10:54;15.80;99.90
63313;DHT22;49442;45.640;13.812;2022-10-31T00:13:19;15.80;99.90
63313;DHT22;49442;45.640;13.812;2022-10-31T00:15:45;15.80;99.90
63313;DHT22;49442;45.640;13.812;2022-10-31T00:18:11;15.80;99.90
63313;DHT22;49442;45.640;13.812;2022-10-31T00:20:38;15.80;99.90
63313;DHT22;49442;45.640;13.812;2022-10-31T00:23:04;15.70;99.90
63313;DHT22;49442;45.640;13.812;2022-10-31T00:25:34;15.70;99.90
63313;DHT22;49442;45.640;13.812;2022-10-31T00:28:03;15.70;99.90
63313;DHT22;49442;45.640;13.812;2022-10-31T00:30:28;15.70;99.90
63313;DHT22;49442;45.640;13.812;2022-10-31T00:32:54;15.70;99.90
63313;DHT22;49442;45.640;13.812;2022-10-31T00:35:19;15.70;99.90
63313;DHT22;49442;45.640;13.812;2022-10-31T00:37:45;15.70;99.90
63313;DHT22;49442;45.640;13.812;2022-10-31T00:40:11;15.70;99.90
63313;DHT22;49442;45.640;13.812;2022-10-31T00:42:37;15.70;99.90
63313;DHT22;49442;45.640;13.812;2022-10-31T00:45:04;15.70;99.90
63313;DHT22;49442;45.640;13.812;2022-10-31T00:47:29;15.70;99.90
63313;DHT22;49442;45.640;13.812;2022-10-31T00:49:55;15.70;99.90
63313;DHT22;49442;45.640;13.812;2022-10-31T00:52:21;15.60;99.90
63313;DHT22;49442;45.640;13.812;2022-10-31T00:54:46;15.60;99.90
63313;DHT22;49442;45.640;13.812;2022-10-31T00:57:12;15.60;99.90
63313;DHT22;49442;45.640;13.812;2022-10-31T00:59:37;15.60;99.90
63313;DHT22;49442;45.640;13.812;2022-10-31T01:02:03;15.60;99.90
63313;DHT22;49442;45.640;13.812;2022-10-31T01:04:28;15.60;99.90
63313;DHT22;49442;45.640;13.812;2022-10-31T01:06:54;15.60;99.90
63313;DHT22;49442;45.640;13.812;2022-10-31T01:09:20;15.60;99.90
63313;DHT22;49442;45.640;13.812;2022-10-31T01:11:45;15.60;99.90
63313;DHT22;49442;45.640;13.812;2022-10-31T01:14:11;15.60;99.90
63313;DHT22;49442;45.640;13.812;2022-10-31T01:16:37;15.60;99.90
63313;DHT22;49442;45.640;13.812;2022-10-31T01:19:02;15.60;99.90
63313;DHT22;49442;45.640;13.812;2022-10-31T01:21:29;15.60;99.90
63313;DHT22;49442;45.640;13.812;2022-10-31T01:23:55;15.50;99.90
63313;DHT22;49442;45.640;13.812;2022-10-31T01:26:23;15.60;99.90
63313;DHT22;49442;45.640;13.812;2022-10-31T01:28:53;15.60;99.90
63313;DHT22;49442;45.640;13.812;2022-10-31T01:31:21;15.60;99.90
63313;DHT22;49442;45.640;13.812;2022-10-31T01:33:47;15.60;99.90
63313;DHT22;49442;45.640;13.812;2022-10-31T01:38:56;15.50;99.90
63313;DHT22;49442;45.640;13.812;2022-10-31T01:41:24;15.50;99.90
63313;DHT22;49442;45.640;13.812;2022-10-31T01:43:54;15.50;99.90
63313;DHT22;49442;45.640;13.812;2022-10-31T01:46:38;15.50;99.90
63313;DHT22;49442;45.640;13.812;2022-10-31T01:49:13;15.50;99.90
63313;DHT22;49442;45.640;13.812;2022-10-31T01:51:45;15.50;99.90
63313;DHT22;49442;45.640;13.812;2022-10-31T01:54:16;15.50;99.90
63313;DHT22;49442;45.640;13.812;2022-10-31T01:56:47;15.50;99.90
63313;DHT22;49442;45.640;13.812;2022-10-31T01:59:16;15.50;99.90
63313;DHT22;49442;45.640;13.812;2022-10-31T02:01:43;15.50;99.90
63313;DHT22;49442;45.640;13.812;2022-10-31T02:04:09;15.50;99.90
63313;DHT22;49442;45.640;13.812;2022-10-31T02:06:51;15.50;99.90
63313;DHT22;49442;45.640;13.812;2022-10-31T02:09:19;15.50;99.90
63313;DHT22;49442;45.640;13.812;2022-10-31T02:11:51;15.50;99.90
63313;DHT22;49442;45.640;13.812;2022-10-31T02:14:18;15.50;99.90
63313;DHT22;49442;45.640;13.812;2022-10-31T02:16:43;15.50;99.90
63313;DHT22;49442;45.640;13.812;2022-10-31T02:19:13;15.50;99.90
63313;DHT22;49442;45.640;13.812;2022-10-31T02:22:02;15.50;99.90
63313;DHT22;49442;45.640;13.812;2022-10-31T02:30:24;15.50;99.90
63313;DHT22;49442;45.640;13.812;2022-10-31T02:32:58;15.50;99.90
63313;DHT22;49442;45.640;13.812;2022-10-31T02:38:21;15.50;99.90
63313;DHT22;49442;45.640;13.812;2022-10-31T02:41:15;15.50;99.90
63313;DHT22;49442;45.640;13.812;2022-10-31T02:48:44;15.50;99.90
63313;DHT22;49442;45.640;13.812;2022-10-31T02:51:11;15.50;99.90
63313;DHT22;49442;45.640;13.812;2022-10-31T02:53:38;15.50;99.90
63313;DHT22;49442;45.640;13.812;2022-10-31T02:58:41;15.50;99.90
63313;DHT22;49442;45.640;13.812;2022-10-31T03:03:58;15.50;99.90
63313;DHT22;49442;45.640;13.812;2022-10-31T03:11:45;15.40;99.90
63313;DHT22;49442;45.640;13.812;2022-10-31T03:14:26;15.40;99.90
63313;DHT22;49442;45.640;13.812;2022-10-31T03:16:56;15.40;99.90
63313;DHT22;49442;45.640;13.812;2022-10-31T03:19:34;15.40;99.90
63313;DHT22;49442;45.640;13.812;2022-10-31T03:22:27;15.40;99.90
63313;DHT22;49442;45.640;13.812;2022-10-31T03:24:55;15.30;99.90
63313;DHT22;49442;45.640;13.812;2022-10-31T03:27:24;15.30;99.90
63313;DHT22;49442;45.640;13.812;2022-10-31T03:29:54;15.30;99.90
63313;DHT22;49442;45.640;13.812;2022-10-31T03:32:33;15.30;99.90
63313;DHT22;49442;45.640;13.812;2022-10-31T03:35:01;15.30;99.90
63313;DHT22;49442;45.640;13.812;2022-10-31T03:37:30;15.30;99.90
63313;DHT22;49442;45.640;13.812;2022-10-31T03:39:59;15.30;99.90
63313;DHT22;49442;45.640;13.812;2022-10-31T03:42:27;15.30;99.90
63313;DHT22;49442;45.640;13.812;2022-10-31T03:45:16;15.30;99.90
63313;DHT22;49442;45.640;13.812;2022-10-31T03:47:43;15.30;99.90
63313;DHT22;49442;45.640;13.812;2022-10-31T03:50:12;15.30;99.90
63313;DHT22;49442;45.640;13.812;2022-10-31T03:53:24;15.20;99.90
63313;DHT22;49442;45.640;13.812;2022-10-31T03:55:58;15.20;99.90
63313;DHT22;49442;45.640;13.812;2022-10-31T03:58:29;15.20;99.90
63313;DHT22;49442;45.640;13.812;2022-10-31T04:00:58;15.20;99.90
63313;DHT22;49442;45.640;13.812;2022-10-31T04:03:30;15.20;99.90
63313;DHT22;49442;45.640;13.812;2022-10-31T04:06:00;15.20;99.90
63313;DHT22;49442;45.640;13.812;2022-10-31T04:08:30;15.20;99.90
63313;DHT22;49442;45.640;13.812;2022-10-31T04:10:57;15.20;99.90
63313;DHT22;49442;45.640;13.812;2022-10-31T04:13:28;15.20;99.90
63313;DHT22;49442;45.640;13.812;2022-10-31T04:15:55;15.20;99.90
63313;DHT22;49442;45.640;13.812;2022-10-31T04:18:23;15.20;99.90
63313;DHT22;49442;45.640;13.812;2022-10-31T04:20:49;15.20;99.90
63313;DHT22;49442;45.640;13.812;2022-10-31T04:23:20;15.20;99.90
63313;DHT22;49442;45.640;13.812;2022-10-31T04:25:47;15.20;99.90
63313;DHT22;49442;45.640;13.812;2022-10-31T04:28:13;15.20;99.90
63313;DHT22;49442;45.640;13.812;2022-10-31T04:30:39;15.20;99.90
63313;DHT22;49442;45.640;13.812;2022-10-31T04:33:04;15.20;99.90
63313;DHT22;49442;45.640;13.812;2022-10-31T04:35:30;15.20;99.90
63313;DHT22;49442;45.640;13.812;2022-10-31T04:37:56;15.20;99.90
63313;DHT22;49442;45.640;13.812;2022-10-31T04:40:21;15.30;99.90
63313;DHT22;49442;45.640;13.812;2022-10-31T04:42:47;15.30;99.90
63313;DHT22;49442;45.640;13.812;2022-10-31T04:45:12;15.30;99.90
63313;DHT22;49442;45.640;13.812;2022-10-31T04:47:38;15.30;99.90
63313;DHT22;49442;45.640;13.812;2022-10-31T04:50:04;15.30;99.90
63313;DHT22;49442;45.640;13.812;2022-10-31T04:52:30;15.30;99.90
63313;DHT22;49442;45.640;13.812;2022-10-31T04:54:55;15.30;99.90
63313;DHT22;49442;45.640;13.812;2022-10-31T04:57:21;15.30;99.90
63313;DHT22;49442;45.640;13.812;2022-10-31T04:59:47;15.30;99.90
63313;DHT22;49442;45.640;13.812;2022-10-31T05:02:12;15.30;99.90
63313;DHT22;49442;45.640;13.812;2022-10-31T05:04:38;15.20;99.90
63313;DHT22;49442;45.640;13.812;2022-10-31T05:07:03;15.20;99.90
63313;DHT22;49442;45.640;13.812;2022-10-31T05:09:29;15.30;99.90
63313;DHT22;49442;45.640;13.812;2022-10-31T05:11:55;15.20;99.90
63313;DHT22;49442;45.640;13.812;2022-10-31T05:14:20;15.20;99.90
63313;DHT22;49442;45.640;13.812;2022-10-31T05:16:46;15.20;99.90
63313;DHT22;49442;45.640;13.812;2022-10-31T05:19:11;15.30;99.90
63313;DHT22;49442;45.640;13.812;2022-10-31T05:21:37;15.20;99.90
63313;DHT22;49442;45.640;13.812;2022-10-31T05:24:03;15.20;99.90
63313;DHT22;49442;45.640;13.812;2022-10-31T05:26:29;15.20;99.90
63313;DHT22;49442;45.640;13.812;2022-10-31T05:28:54;15.20;99.90
63313;DHT22;49442;45.640;13.812;2022-10-31T05:31:20;15.20;99.90
63313;DHT22;49442;45.640;13.812;2022-10-31T05:33:46;15.20;99.90
63313;DHT22;49442;45.640;13.812;2022-10-31T05:36:11;15.20;99.90
63313;DHT22;49442;45.640;13.812;2022-10-31T05:38:37;15.20;99.90
63313;DHT22;49442;45.640;13.812;2022-10-31T05:41:03;15.20;99.90
63313;DHT22;49442;45.640;13.812;2022-10-31T05:43:29;15.20;99.90
63313;DHT22;49442;45.640;13.812;2022-10-31T05:45:55;15.20;99.90
63313;DHT22;49442;45.640;13.812;2022-10-31T05:48:21;15.20;99.90
63313;DHT22;49442;45.640;13.812;2022-10-31T05:50:50;15.20;99.90
63313;DHT22;49442;45.640;13.812;2022-10-31T05:53:16;15.20;99.90
63313;DHT22;49442;45.640;13.812;2022-10-31T05:55:42;15.20;99.90
63313;DHT22;49442;45.640;13.812;2022-10-31T05:58:09;15.20;99.90
63313;DHT22;49442;45.640;13.812;2022-10-31T06:00:35;15.20;99.90
63313;DHT22;49442;45.640;13.812;2022-10-31T06:03:03;15.20;99.90
63313;DHT22;49442;45.640;13.812;2022-10-31T06:05:30;15.20;99.90
63313;DHT22;49442;45.640;13.812;2022-10-31T06:07:56;15.20;99.90
63313;DHT22;49442;45.640;13.812;2022-10-31T06:10:22;15.30;99.90
63313;DHT22;49442;45.640;13.812;2022-10-31T06:12:48;15.30;99.90
63313;DHT22;49442;45.640;13.812;2022-10-31T06:15:14;15.30;99.90
63313;DHT22;49442;45.640;13.812;2022-10-31T06:17:41;15.30;99.90
63313;DHT22;49442;45.640;13.812;2022-10-31T06:20:07;15.20;99.90
63313;DHT22;49442;45.640;13.812;2022-10-31T06:22:33;15.30;99.90
63313;DHT22;49442;45.640;13.812;2022-10-31T06:24:59;15.30;99.90
63313;DHT22;49442;45.640;13.812;2022-10-31T06:27:25;15.30;99.90
63313;DHT22;49442;45.640;13.812;2022-10-31T06:29:50;15.30;99.90
63313;DHT22;49442;45.640;13.812;2022-10-31T06:32:17;15.40;99.90
63313;DHT22;49442;45.640;13.812;2022-10-31T06:34:43;15.40;99.90
63313;DHT22;49442;45.640;13.812;2022-10-31T06:37:12;15.40;99.90
63313;DHT22;49442;45.640;13.812;2022-10-31T06:39:38;15.40;99.90
63313;DHT22;49442;45.640;13.812;2022-10-31T06:42:04;15.50;99.90
63313;DHT22;49442;45.640;13.812;2022-10-31T06:44:30;15.50;99.90
63313;DHT22;49442;45.640;13.812;2022-10-31T06:46:56;15.60;99.90
63313;DHT22;49442;45.640;13.812;2022-10-31T06:49:22;15.60;99.90
63313;DHT22;49442;45.640;13.812;2022-10-31T06:51:48;15.70;99.90
63313;DHT22;49442;45.640;13.812;2022-10-31T06:54:14;15.70;99.90
63313;DHT22;49442;45.640;13.812;2022-10-31T06:56:40;15.70;99.90
63313;DHT22;49442;45.640;13.812;2022-10-31T06:59:05;15.80;99.90
63313;DHT22;49442;45.640;13.812;2022-10-31T07:01:31;15.80;99.90
63313;DHT22;49442;45.640;13.812;2022-10-31T07:03:57;15.90;99.90
63313;DHT22;49442;45.640;13.812;2022-10-31T07:06:22;15.90;99.90
63313;DHT22;49442;45.640;13.812;2022-10-31T07:08:48;16.00;99.90
63313;DHT22;49442;45.640;13.812;2022-10-31T07:11:14;16.00;99.90
63313;DHT22;49442;45.640;13.812;2022-10-31T07:13:39;16.10;99.90
63313;DHT22;49442;45.640;13.812;2022-10-31T07:16:06;16.20;99.90
63313;DHT22;49442;45.640;13.812;2022-10-31T07:18:32;16.30;99.90
63313;DHT22;49442;45.640;13.812;2022-10-31T07:20:58;16.30;99.90
63313;DHT22;49442;45.640;13.812;2022-10-31T07:23:24;16.40;99.90
63313;DHT22;49442;45.640;13.812;2022-10-31T07:25:55;16.50;99.90
63313;DHT22;49442;45.640;13.812;2022-10-31T07:28:20;16.50;99.90
63313;DHT22;49442;45.640;13.812;2022-10-31T07:30:50;16.70;99.90
63313;DHT22;49442;45.640;13.812;2022-10-31T07:33:16;16.80;99.90
63313;DHT22;49442;45.640;13.812;2022-10-31T07:35:42;16.90;99.90
63313;DHT22;49442;45.640;13.812;2022-10-31T07:38:12;17.10;99.90
63313;DHT22;49442;45.640;13.812;2022-10-31T07:40:38;17.20;99.90
63313;DHT22;49442;45.640;13.812;2022-10-31T07:43:04;17.40;99.90
63313;DHT22;49442;45.640;13.812;2022-10-31T07:45:33;17.50;99.90
63313;DHT22;49442;45.640;13.812;2022-10-31T07:47:59;17.70;99.90
63313;DHT22;49442;45.640;13.812;2022-10-31T07:50:30;17.90;99.90
63313;DHT22;49442;45.640;13.812;2022-10-31T07:53:01;18.00;99.90
63313;DHT22;49442;45.640;13.812;2022-10-31T07:55:27;18.20;99.90
63313;DHT22;49442;45.640;13.812;2022-10-31T07:58:00;18.30;99.90
63313;DHT22;49442;45.640;13.812;2022-10-31T08:00:26;18.50;99.90
63313;DHT22;49442;45.640;13.812;2022-10-31T08:03:07;18.60;99.90
63313;DHT22;49442;45.640;13.812;2022-10-31T08:05:34;18.80;99.90
63313;DHT22;49442;45.640;13.812;2022-10-31T08:08:00;18.90;99.90
63313;DHT22;49442;45.640;13.812;2022-10-31T08:10:26;19.10;99.90
63313;DHT22;49442;45.640;13.812;2022-10-31T08:13:06;19.20;99.90
63313;DHT22;49442;45.640;13.812;2022-10-31T08:15:33;19.30;99.90
63313;DHT22;49442;45.640;13.812;2022-10-31T08:18:02;19.50;99.90
63313;DHT22;49442;45.640;13.812;2022-10-31T08:20:28;19.60;99.90
63313;DHT22;49442;45.640;13.812;2022-10-31T08:25:24;19.80;99.90
63313;DHT22;49442;45.640;13.812;2022-10-31T08:27:51;19.90;99.90
63313;DHT22;49442;45.640;13.812;2022-10-31T08:30:18;19.90;99.90
63313;DHT22;49442;45.640;13.812;2022-10-31T08:32:44;20.00;99.90
63313;DHT22;49442;45.640;13.812;2022-10-31T08:35:09;20.10;99.90
63313;DHT22;49442;45.640;13.812;2022-10-31T08:37:35;20.10;99.90
63313;DHT22;49442;45.640;13.812;2022-10-31T08:40:01;20.20;99.90
63313;DHT22;49442;45.640;13.812;2022-10-31T08:42:26;20.20;99.90
63313;DHT22;49442;45.640;13.812;2022-10-31T08:44:52;20.30;99.90
63313;DHT22;49442;45.640;13.812;2022-10-31T08:47:18;20.30;99.90
63313;DHT22;49442;45.640;13.812;2022-10-31T08:49:43;20.30;99.90
63313;DHT22;49442;45.640;13.812;2022-10-31T08:52:09;20.40;99.90
63313;DHT22;49442;45.640;13.812;2022-10-31T08:54:40;20.40;99.90
63313;DHT22;49442;45.640;13.812;2022-10-31T08:57:05;20.50;99.90
63313;DHT22;49442;45.640;13.812;2022-10-31T08:59:31;20.60;99.90
63313;DHT22;49442;45.640;13.812;2022-10-31T09:01:56;20.70;99.90
63313;DHT22;49442;45.640;13.812;2022-10-31T09:04:22;20.70;99.90
63313;DHT22;49442;45.640;13.812;2022-10-31T09:06:48;20.70;99.90
63313;DHT22;49442;45.640;13.812;2022-10-31T09:09:13;20.70;99.90
63313;DHT22;49442;45.640;13.812;2022-10-31T09:11:39;20.70;99.90
63313;DHT22;49442;45.640;13.812;2022-10-31T09:14:05;20.70;99.90
63313;DHT22;49442;45.640;13.812;2022-10-31T09:16:30;20.70;99.90
63313;DHT22;49442;45.640;13.812;2022-10-31T09:18:56;20.70;99.90
63313;DHT22;49442;45.640;13.812;2022-10-31T09:21:21;20.70;99.90
63313;DHT22;49442;45.640;13.812;2022-10-31T09:23:47;20.70;99.90
63313;DHT22;49442;45.640;13.812;2022-10-31T09:26:13;20.70;99.90
63313;DHT22;49442;45.640;13.812;2022-10-31T09:28:38;20.70;99.90
63313;DHT22;49442;45.640;13.812;2022-10-31T09:31:04;20.70;99.90
63313;DHT22;49442;45.640;13.812;2022-10-31T09:33:29;20.90;99.90
63313;DHT22;49442;45.640;13.812;2022-10-31T09:35:57;20.90;99.90
63313;DHT22;49442;45.640;13.812;2022-10-31T09:38:23;21.00;99.90
63313;DHT22;49442;45.640;13.812;2022-10-31T09:41:12;21.00;99.90
63313;DHT22;49442;45.640;13.812;2022-10-31T09:43:47;21.10;99.90
63313;DHT22;49442;45.640;13.812;2022-10-31T09:49:27;21.10;99.90
63313;DHT22;49442;45.640;13.812;2022-10-31T09:52:35;21.20;99.90
63313;DHT22;49442;45.640;13.812;2022-10-31T09:55:22;21.20;99.90
63313;DHT22;49442;45.640;13.812;2022-10-31T09:57:50;21.30;99.90
63313;DHT22;49442;45.640;13.812;2022-10-31T10:00:19;21.30;99.90
63313;DHT22;49442;45.640;13.812;2022-10-31T10:02:53;21.30;99.90
63313;DHT22;49442;45.640;13.812;2022-10-31T10:05:40;21.40;99.90
63313;DHT22;49442;45.640;13.812;2022-10-31T10:08:25;21.50;99.90
63313;DHT22;49442;45.640;13.812;2022-10-31T10:11:07;21.70;99.90
63313;DHT22;49442;45.640;13.812;2022-10-31T10:21:56;21.80;99.90
63313;DHT22;49442;45.640;13.812;2022-10-31T10:30:22;21.80;99.90
63313;DHT22;49442;45.640;13.812;2022-10-31T10:32:52;21.80;99.90
63313;DHT22;49442;45.640;13.812;2022-10-31T10:35:25;21.80;99.90
63313;DHT22;49442;45.640;13.812;2022-10-31T10:37:57;21.90;99.90
63313;DHT22;49442;45.640;13.812;2022-10-31T10:40:26;21.90;99.90
63313;DHT22;49442;45.640;13.812;2022-10-31T10:54:38;23.50;99.90
63313;DHT22;49442;45.640;13.812;2022-10-31T10:57:22;23.40;99.90
63313;DHT22;49442;45.640;13.812;2022-10-31T10:59:48;23.20;99.90
63313;DHT22;49442;45.640;13.812;2022-10-31T11:02:29;23.10;99.90
63313;DHT22;49442;45.640;13.812;2022-10-31T11:04:58;23.00;99.90
63313;DHT22;49442;45.640;13.812;2022-10-31T11:07:25;22.90;99.90
63313;DHT22;49442;45.640;13.812;2022-10-31T11:09:50;22.90;99.90
63313;DHT22;49442;45.640;13.812;2022-10-31T11:12:20;22.80;99.90
63313;DHT22;49442;45.640;13.812;2022-10-31T11:14:56;22.80;99.90
63313;DHT22;49442;45.640;13.812;2022-10-31T11:17:32;22.80;99.90
63313;DHT22;49442;45.640;13.812;2022-10-31T11:22:28;22.70;99.90
63313;DHT22;49442;45.640;13.812;2022-10-31T11:24:54;22.60;99.90
63313;DHT22;49442;45.640;13.812;2022-10-31T11:27:21;22.60;99.90
63313;DHT22;49442;45.640;13.812;2022-10-31T11:29:49;22.60;99.90
63313;DHT22;49442;45.640;13.812;2022-10-31T11:32:23;22.60;99.90
63313;DHT22;49442;45.640;13.812;2022-10-31T11:34:54;22.60;99.90
63313;DHT22;49442;45.640;13.812;2022-10-31T11:37:25;22.60;99.90
63313;DHT22;49442;45.640;13.812;2022-10-31T11:40:05;22.60;99.90
63313;DHT22;49442;45.640;13.812;2022-10-31T11:42:39;22.60;99.90
63313;DHT22;49442;45.640;13.812;2022-10-31T11:47:55;22.70;99.90
63313;DHT22;49442;45.640;13.812;2022-10-31T11:52:58;22.80;99.90
63313;DHT22;49442;45.640;13.812;2022-10-31T11:57:57;22.80;99.90
63313;DHT22;49442;45.640;13.812;2022-10-31T12:00:29;22.80;99.90
63313;DHT22;49442;45.640;13.812;2022-10-31T12:05:38;22.80;99.90
63313;DHT22;49442;45.640;13.812;2022-10-31T12:08:09;22.80;99.90
63313;DHT22;49442;45.640;13.812;2022-10-31T12:10:58;22.80;99.90
63313;DHT22;49442;45.640;13.812;2022-10-31T12:13:42;22.80;99.90
63313;DHT22;49442;45.640;13.812;2022-10-31T12:16:42;22.80;99.90
63313;DHT22;49442;45.640;13.812;2022-10-31T12:22:24;22.80;99.90
63313;DHT22;49442;45.640;13.812;2022-10-31T12:27:44;22.70;99.90
63313;DHT22;49442;45.640;13.812;2022-10-31T12:30:20;22.70;99.90
63313;DHT22;49442;45.640;13.812;2022-10-31T12:55:41;22.70;99.90
63313;DHT22;49442;45.640;13.812;2022-10-31T12:58:18;22.70;99.90
63313;DHT22;49442;45.640;13.812;2022-10-31T13:00:50;22.80;99.90
63313;DHT22;49442;45.640;13.812;2022-10-31T13:06:19;22.80;99.90
63313;DHT22;49442;45.640;13.812;2022-10-31T13:08:53;22.80;99.90
63313;DHT22;49442;45.640;13.812;2022-10-31T13:16:20;22.80;99.90
63313;DHT22;49442;45.640;13.812;2022-10-31T13:24:23;22.80;99.90
63313;DHT22;49442;45.640;13.812;2022-10-31T13:26:53;22.80;99.90
63313;DHT22;49442;45.640;13.812;2022-10-31T13:32:14;22.80;99.90
63313;DHT22;49442;45.640;13.812;2022-10-31T13:34:52;22.80;99.90
63313;DHT22;49442;45.640;13.812;2022-10-31T13:45:27;22.80;99.90
63313;DHT22;49442;45.640;13.812;2022-10-31T13:48:16;22.80;99.90
63313;DHT22;49442;45.640;13.812;2022-10-31T13:50:55;22.80;99.90
63313;DHT22;49442;45.640;13.812;2022-10-31T13:53:22;22.70;99.90
63313;DHT22;49442;45.640;13.812;2022-10-31T13:58:35;22.70;99.90
63313;DHT22;49442;45.640;13.812;2022-10-31T14:03:37;22.60;99.90
63313;DHT22;49442;45.640;13.812;2022-10-31T14:06:04;22.50;99.90
63313;DHT22;49442;45.640;13.812;2022-10-31T14:08:33;22.50;99.90
63313;DHT22;49442;45.640;13.812;2022-10-31T14:11:00;22.40;99.90
63313;DHT22;49442;45.640;13.812;2022-10-31T14:13:36;22.40;99.90
63313;DHT22;49442;45.640;13.812;2022-10-31T14:16:05;22.30;99.90
63313;DHT22;49442;45.640;13.812;2022-10-31T14:18:34;22.20;99.90
63313;DHT22;49442;45.640;13.812;2022-10-31T14:23:52;22.10;99.90
63313;DHT22;49442;45.640;13.812;2022-10-31T14:28:53;22.00;99.90
63313;DHT22;49442;45.640;13.812;2022-10-31T14:31:41;21.90;99.90
63313;DHT22;49442;45.640;13.812;2022-10-31T14:34:57;21.90;99.90
63313;DHT22;49442;45.640;13.812;2022-10-31T14:37:37;21.80;99.90
63313;DHT22;49442;45.640;13.812;2022-10-31T14:43:19;21.70;99.90
63313;DHT22;49442;45.640;13.812;2022-10-31T14:51:22;21.50;99.90
63313;DHT22;49442;45.640;13.812;2022-10-31T14:53:51;21.40;99.90
63313;DHT22;49442;45.640;13.812;2022-10-31T14:56:25;21.20;99.90
63313;DHT22;49442;45.640;13.812;2022-10-31T14:58:53;21.20;99.90
63313;DHT22;49442;45.640;13.812;2022-10-31T15:01:23;21.10;99.90
63313;DHT22;49442;45.640;13.812;2022-10-31T15:03:50;21.00;99.90
63313;DHT22;49442;45.640;13.812;2022-10-31T15:06:19;20.90;99.90
63313;DHT22;49442;45.640;13.812;2022-10-31T15:08:48;20.80;99.90
63313;DHT22;49442;45.640;13.812;2022-10-31T15:13:51;20.70;99.90
63313;DHT22;49442;45.640;13.812;2022-10-31T15:16:25;20.60;99.90
63313;DHT22;49442;45.640;13.812;2022-10-31T15:18:55;20.60;99.90
63313;DHT22;49442;45.640;13.812;2022-10-31T15:21:23;20.60;99.90
63313;DHT22;49442;45.640;13.812;2022-10-31T15:23:52;20.50;99.90
63313;DHT22;49442;45.640;13.812;2022-10-31T15:26:20;20.40;99.90
63313;DHT22;49442;45.640;13.812;2022-10-31T15:29:13;20.40;99.90
63313;DHT22;49442;45.640;13.812;2022-10-31T15:31:52;20.30;99.90
63313;DHT22;49442;45.640;13.812;2022-10-31T15:36:59;20.10;99.90
63313;DHT22;49442;45.640;13.812;2022-10-31T15:39:25;20.00;99.90
63313;DHT22;49442;45.640;13.812;2022-10-31T15:41:52;19.90;99.90
63313;DHT22;49442;45.640;13.812;2022-10-31T15:47:01;19.80;99.90
63313;DHT22;49442;45.640;13.812;2022-10-31T15:49:40;19.70;99.90
63313;DHT22;49442;45.640;13.812;2022-10-31T15:52:25;19.60;99.90
63313;DHT22;49442;45.640;13.812;2022-10-31T15:54:53;19.60;99.90
63313;DHT22;49442;45.640;13.812;2022-10-31T15:57:24;19.50;99.90
63313;DHT22;49442;45.640;13.812;2022-10-31T15:59:51;19.40;99.90
63313;DHT22;49442;45.640;13.812;2022-10-31T16:02:24;19.30;99.90
63313;DHT22;49442;45.640;13.812;2022-10-31T16:04:56;19.30;99.90
63313;DHT22;49442;45.640;13.812;2022-10-31T16:07:23;19.20;99.90
63313;DHT22;49442;45.640;13.812;2022-10-31T16:12:21;19.10;99.90
63313;DHT22;49442;45.640;13.812;2022-10-31T16:14:48;19.10;99.90
63313;DHT22;49442;45.640;13.812;2022-10-31T16:17:16;19.00;99.90
63313;DHT22;49442;45.640;13.812;2022-10-31T16:22:30;18.90;99.90
63313;DHT22;49442;45.640;13.812;2022-10-31T16:25:15;18.90;99.90
63313;DHT22;49442;45.640;13.812;2022-10-31T16:27:48;18.80;99.90
63313;DHT22;49442;45.640;13.812;2022-10-31T16:32:58;18.80;99.90
63313;DHT22;49442;45.640;13.812;2022-10-31T16:35:32;18.70;99.90
63313;DHT22;49442;45.640;13.812;2022-10-31T16:37:58;18.60;99.90
63313;DHT22;49442;45.640;13.812;2022-10-31T16:40:24;18.60;99.90
63313;DHT22;49442;45.640;13.812;2022-10-31T16:42:50;18.60;99.90
63313;DHT22;49442;45.640;13.812;2022-10-31T16:45:31;18.60;99.90
63313;DHT22;49442;45.640;13.812;2022-10-31T16:48:05;18.60;99.90
63313;DHT22;49442;45.640;13.812;2022-10-31T16:50:31;18.60;99.90
63313;DHT22;49442;45.640;13.812;2022-10-31T16:52:58;18.60;99.90
63313;DHT22;49442;45.640;13.812;2022-10-31T16:55:23;18.60;99.90
63313;DHT22;49442;45.640;13.812;2022-10-31T16:57:52;18.60;99.90
63313;DHT22;49442;45.640;13.812;2022-10-31T17:00:25;18.60;99.90
63313;DHT22;49442;45.640;13.812;2022-10-31T17:02:54;18.60;99.90
63313;DHT22;49442;45.640;13.812;2022-10-31T17:05:21;18.50;99.90
63313;DHT22;49442;45.640;13.812;2022-10-31T17:07:47;18.50;99.90
63313;DHT22;49442;45.640;13.812;2022-10-31T17:10:14;18.60;99.90
63313;DHT22;49442;45.640;13.812;2022-10-31T17:12:46;18.60;99.90
63313;DHT22;49442;45.640;13.812;2022-10-31T17:15:21;18.50;99.90
63313;DHT22;49442;45.640;13.812;2022-10-31T17:17:48;18.50;99.90
63313;DHT22;49442;45.640;13.812;2022-10-31T17:22:42;18.60;99.90
63313;DHT22;49442;45.640;13.812;2022-10-31T17:25:16;18.50;99.90
63313;DHT22;49442;45.640;13.812;2022-10-31T17:27:43;18.60;99.90
63313;DHT22;49442;45.640;13.812;2022-10-31T17:30:11;18.60;99.90
63313;DHT22;49442;45.640;13.812;2022-10-31T17:32:37;18.60;99.90
63313;DHT22;49442;45.640;13.812;2022-10-31T17:35:03;18.50;99.90
63313;DHT22;49442;45.640;13.812;2022-10-31T17:37:28;18.50;99.90
63313;DHT22;49442;45.640;13.812;2022-10-31T17:39:54;18.40;99.90
63313;DHT22;49442;45.640;13.812;2022-10-31T17:42:20;18.40;99.90
63313;DHT22;49442;45.640;13.812;2022-10-31T17:44:46;18.40;99.90
63313;DHT22;49442;45.640;13.812;2022-10-31T17:47:11;18.40;99.90
63313;DHT22;49442;45.640;13.812;2022-10-31T17:49:37;18.40;99.90
63313;DHT22;49442;45.640;13.812;2022-10-31T17:52:03;18.30;99.90
63313;DHT22;49442;45.640;13.812;2022-10-31T17:54:29;18.30;99.90
63313;DHT22;49442;45.640;13.812;2022-10-31T17:56:54;18.30;99.90
63313;DHT22;49442;45.640;13.812;2022-10-31T17:59:20;18.30;99.90
63313;DHT22;49442;45.640;13.812;2022-10-31T18:01:46;18.30;99.90
63313;DHT22;49442;45.640;13.812;2022-10-31T18:04:12;18.30;99.90
63313;DHT22;49442;45.640;13.812;2022-10-31T18:06:37;18.30;99.90
63313;DHT22;49442;45.640;13.812;2022-10-31T18:09:04;18.40;99.90
63313;DHT22;49442;45.640;13.812;2022-10-31T18:11:30;18.40;99.90